Time;durP1;ratioP1;P1;durP2;ratioP2;P2;SDS_P1;SDS_P2;PMS_P1;PMS_P2;Temp;Humidity;BMP_temperature;BMP_pressure;BME280_temperature;BME280_humidity;BME280_pressure;Samples;Min_cycle;Max_cycle;Signal;HPM_P1;HPM_P2
2022/01/19 00:01:32;;;;;;;2.20;1.70;;;6.60;99.90;;;;;;5033248;28;20882;-71
2022/01/19 00:03:58;;;;;;;3.03;1.47;;;6.60;99.90;;;;;;5024216;28;20811;-71
2022/01/19 00:06:24;;;;;;;2.53;1.83;;;6.60;99.90;;;;;;5049994;28;20462;-70
2022/01/19 00:08:51;;;;;;;3.53;1.73;;;6.60;99.90;;;;;;5050282;28;20242;-70
2022/01/19 00:11:17;;;;;;;2.57;1.70;;;6.60;99.90;;;;;;5033010;28;20450;-70
2022/01/19 00:13:43;;;;;;;1.63;1.53;;;6.60;99.90;;;;;;5049576;28;20469;-69
2022/01/19 00:16:09;;;;;;;1.40;1.30;;;6.60;99.90;;;;;;5050050;28;20241;-71
2022/01/19 00:18:35;;;;;;;2.20;1.80;;;6.60;99.90;;;;;;5033367;28;20220;-69
2022/01/19 00:21:01;;;;;;;2.43;2.23;;;6.60;99.90;;;;;;5049059;28;20457;-70
2022/01/19 00:23:27;;;;;;;2.10;1.87;;;6.60;99.90;;;;;;5030047;28;20225;-70
2022/01/19 00:25:54;;;;;;;1.77;1.57;;;6.60;99.90;;;;;;5045263;28;20508;-70
2022/01/19 00:28:20;;;;;;;1.80;1.70;;;6.60;99.90;;;;;;5051020;28;20457;-70
2022/01/19 00:30:47;;;;;;;1.83;1.73;;;6.50;99.90;;;;;;5049608;28;20458;-70
2022/01/19 00:33:13;;;;;;;2.20;2.00;;;6.50;99.90;;;;;;5049654;28;20455;-71
2022/01/19 00:35:39;;;;;;;1.93;1.77;;;6.50;99.90;;;;;;5024431;28;20542;-71
2022/01/19 00:38:07;;;;;;;4.97;1.70;;;6.50;99.90;;;;;;5029076;28;20531;-71
2022/01/19 00:40:34;;;;;;;2.10;1.47;;;6.40;99.90;;;;;;5029507;28;20296;-71
2022/01/19 00:43:00;;;;;;;2.17;1.90;;;6.40;99.90;;;;;;5041598;28;20463;-70
2022/01/19 00:45:26;;;;;;;1.60;1.50;;;6.40;99.90;;;;;;5030851;28;20913;-69
2022/01/19 00:47:52;;;;;;;3.33;1.70;;;6.40;99.90;;;;;;5048899;28;20223;-71
2022/01/19 00:50:24;;;;;;;2.53;2.20;;;6.50;99.90;;;;;;5032822;28;20444;-70
2022/01/19 00:52:51;;;;;;;1.57;1.47;;;6.50;99.90;;;;;;5040894;28;20533;-70
2022/01/19 00:55:20;;;;;;;2.87;2.00;;;6.50;99.90;;;;;;5048766;28;20455;-70
2022/01/19 00:57:47;;;;;;;1.53;1.43;;;6.50;99.90;;;;;;5032242;28;20524;-71
2022/01/19 01:00:17;;;;;;;2.10;1.90;;;6.50;99.90;;;;;;5048515;28;20473;-70
2022/01/19 01:02:42;;;;;;;2.23;1.93;;;6.50;99.90;;;;;;5031904;28;20505;-71
2022/01/19 01:05:09;;;;;;;3.83;2.40;;;6.50;99.90;;;;;;5048867;28;20462;-69
2022/01/19 01:07:38;;;;;;;1.60;1.50;;;6.40;99.90;;;;;;5032319;28;20216;-69
2022/01/19 01:10:06;;;;;;;1.93;1.83;;;6.50;99.90;;;;;;5032343;28;20819;-71
2022/01/19 01:12:47;;;;;;;1.80;1.70;;;6.50;99.90;;;;;;5032496;28;20588;-71
2022/01/19 01:20:36;;;;;;;1.70;1.60;;;6.50;99.90;;;;;;5048836;28;20472;-71
2022/01/19 01:23:03;;;;;;;2.13;1.80;;;6.50;99.90;;;;;;5047306;28;20450;-70
2022/01/19 01:25:29;;;;;;;3.93;1.90;;;6.40;99.90;;;;;;5041792;28;21025;-70
2022/01/19 01:27:55;;;;;;;2.10;1.90;;;6.30;99.90;;;;;;5028749;28;20458;-70
2022/01/19 01:30:21;;;;;;;4.20;2.07;;;6.40;99.90;;;;;;5046678;28;20451;-70
2022/01/19 01:32:47;;;;;;;2.57;2.00;;;6.40;99.90;;;;;;5048634;28;20226;-69
2022/01/19 01:35:13;;;;;;;2.53;2.33;;;6.40;99.90;;;;;;5023637;28;20247;-71
2022/01/19 01:37:39;;;;;;;2.60;2.07;;;6.40;99.90;;;;;;5028337;28;20458;-70
2022/01/19 01:40:08;;;;;;;3.17;2.43;;;6.40;99.90;;;;;;5028408;28;20440;-71
2022/01/19 01:42:34;;;;;;;2.00;1.43;;;6.40;99.90;;;;;;5031528;28;20269;-71
2022/01/19 01:45:01;;;;;;;1.90;1.70;;;6.40;99.90;;;;;;5047791;28;20457;-70
2022/01/19 01:47:29;;;;;;;2.50;2.30;;;6.40;99.90;;;;;;5031735;28;20458;-71
2022/01/19 01:55:15;;;;;;;2.17;1.97;;;6.40;99.90;;;;;;5047259;28;20223;-69
2022/01/19 01:57:40;;;;;;;2.10;2.00;;;6.40;99.90;;;;;;5044746;28;20888;-71
2022/01/19 02:00:11;;;;;;;2.27;1.87;;;6.40;99.90;;;;;;5047935;28;20461;-70
2022/01/19 02:02:45;;;;;;;4.10;2.43;;;6.40;99.90;;;;;;5049369;28;20461;-69
2022/01/19 02:05:14;;;;;;;2.13;1.77;;;6.50;99.90;;;;;;5048146;28;20460;-72
2022/01/19 02:08:06;;;;;;;1.70;1.60;;;6.40;99.90;;;;;;5046785;28;20530;-71
2022/01/19 02:10:41;;;;;;;2.50;2.30;;;6.40;99.90;;;;;;5031658;28;20458;-71
2022/01/19 02:16:10;;;;;;;1.70;1.60;;;6.40;99.90;;;;;;5047459;28;20470;-71
2022/01/19 02:21:46;;;;;;;2.10;1.53;;;6.40;99.90;;;;;;5048019;28;20446;-71
2022/01/19 02:24:15;;;;;;;2.20;2.07;;;6.40;99.90;;;;;;5027855;28;20447;-71
2022/01/19 02:26:54;;;;;;;2.37;2.17;;;6.40;99.90;;;;;;5047350;28;20468;-71
2022/01/19 02:40:23;;;;;;;2.70;2.50;;;6.40;99.90;;;;;;5051778;28;20461;-70
2022/01/19 02:43:06;;;;;;;1.87;1.73;;;6.40;99.90;;;;;;5034581;28;20465;-70
2022/01/19 02:51:08;;;;;;;1.93;1.80;;;6.30;99.90;;;;;;5052906;28;20490;-70
2022/01/19 02:53:35;;;;;;;3.67;2.67;;;6.30;99.90;;;;;;5034280;28;20557;-70
2022/01/19 02:56:06;;;;;;;3.50;2.50;;;6.20;99.90;;;;;;5052001;28;20558;-70
2022/01/19 02:58:37;;;;;;;6.93;3.30;;;6.20;99.90;;;;;;5035022;28;20484;-70
2022/01/19 03:09:20;;;;;;;3.57;3.23;;;6.00;99.90;;;;;;5022605;28;20545;-70
2022/01/19 03:11:45;;;;;;;6.10;3.80;;;6.00;99.90;;;;;;5034505;28;21035;-70
2022/01/19 03:14:12;;;;;;;3.50;3.20;;;6.00;99.90;;;;;;5050766;28;20285;-71
2022/01/19 03:16:37;;;;;;;5.27;3.60;;;6.00;99.90;;;;;;5050787;28;20226;-70
2022/01/19 03:19:04;;;;;;;3.70;3.33;;;6.00;99.90;;;;;;5033691;28;20541;-70
2022/01/19 03:21:29;;;;;;;4.93;4.43;;;5.90;99.90;;;;;;5052328;28;20285;-71
2022/01/19 03:23:55;;;;;;;5.00;3.70;;;5.90;99.90;;;;;;5033305;28;20470;-71
2022/01/19 03:26:21;;;;;;;4.63;3.83;;;5.90;99.90;;;;;;5050390;28;20310;-70
2022/01/19 03:29:05;;;;;;;6.13;3.73;;;6.00;99.90;;;;;;5050516;28;20208;-70
2022/01/19 03:31:31;;;;;;;5.30;3.60;;;5.90;99.90;;;;;;5051024;28;20522;-70
2022/01/19 03:33:57;;;;;;;4.47;3.47;;;6.00;99.90;;;;;;5049278;28;20732;-69
2022/01/19 03:36:23;;;;;;;5.33;3.40;;;6.00;99.90;;;;;;5050241;28;20220;-71
2022/01/19 03:38:49;;;;;;;4.93;3.70;;;6.10;99.90;;;;;;5050232;28;20520;-70
2022/01/19 03:41:15;;;;;;;5.03;3.70;;;6.10;99.90;;;;;;5049931;28;20447;-70
2022/01/19 03:43:41;;;;;;;3.87;3.47;;;6.10;99.90;;;;;;5033612;28;20239;-71
2022/01/19 03:46:16;;;;;;;4.80;4.30;;;6.00;99.90;;;;;;5035333;28;20219;-70
2022/01/19 03:48:58;;;;;;;4.33;3.70;;;6.00;99.90;;;;;;5050357;28;20450;-71
2022/01/19 03:51:25;;;;;;;6.67;3.70;;;6.00;99.90;;;;;;5049678;28;20450;-70
2022/01/19 03:53:52;;;;;;;4.03;3.47;;;6.00;99.90;;;;;;5049578;28;21022;-70
2022/01/19 03:56:18;;;;;;;4.57;3.90;;;6.00;99.90;;;;;;5050103;28;20450;-71
2022/01/19 03:58:44;;;;;;;3.93;3.10;;;6.10;99.90;;;;;;5049943;28;20707;-70
2022/01/19 04:01:10;;;;;;;4.30;3.70;;;6.10;99.90;;;;;;5029040;28;20443;-70
2022/01/19 04:06:25;;;;;;;4.87;3.80;;;6.00;99.90;;;;;;5049400;28;20465;-70
2022/01/19 04:08:51;;;;;;;5.47;4.90;;;6.00;99.90;;;;;;5031971;28;20486;-70
2022/01/19 04:11:20;;;;;;;12.03;6.60;;;6.00;99.90;;;;;;5049735;28;20504;-71
2022/01/19 04:14:21;;;;;;;7.87;5.80;;;6.00;99.90;;;;;;5049335;28;20474;-70
2022/01/19 04:16:43;;;;;;;7.43;5.70;;;6.00;99.90;;;;;;5049201;28;20455;-71
2022/01/19 04:21:44;;;;;;;4.97;3.93;;;6.00;99.90;;;;;;5029541;28;20216;-70
2022/01/19 04:24:10;;;;;;;3.63;3.30;;;5.90;99.90;;;;;;5013273;28;20824;-71
2022/01/19 04:26:35;;;;;;;3.40;3.00;;;5.80;99.90;;;;;;5022997;28;20243;-70
2022/01/19 04:29:01;;;;;;;7.07;3.60;;;5.80;99.90;;;;;;5048916;28;20226;-70
2022/01/19 04:31:27;;;;;;;4.50;3.53;;;5.80;99.90;;;;;;5049551;28;20218;-70
2022/01/19 04:33:58;;;;;;;7.20;4.03;;;5.80;99.90;;;;;;5049041;28;20478;-71
2022/01/19 04:47:54;;;;;;;5.83;4.50;;;5.80;99.90;;;;;;5038881;28;20507;-71
2022/01/19 05:03:42;;;;;;;6.17;3.73;;;5.70;99.90;;;;;;5049728;28;20485;-70
2022/01/19 05:06:20;;;;;;;4.70;2.93;;;5.60;99.90;;;;;;5033481;28;20809;-70
2022/01/19 05:08:57;;;;;;;4.30;3.73;;;5.60;99.90;;;;;;5043304;28;20439;-71
2022/01/19 05:14:10;;;;;;;5.60;4.10;;;5.60;99.90;;;;;;5048156;28;20462;-70
2022/01/19 05:16:36;;;;;;;8.50;5.00;;;5.50;99.90;;;;;;5048438;28;20466;-69
2022/01/19 05:19:02;;;;;;;5.03;4.47;;;5.60;99.90;;;;;;5048186;28;20216;-70
2022/01/19 05:21:29;;;;;;;5.07;3.93;;;5.50;99.90;;;;;;5048987;28;20235;-70
2022/01/19 05:24:10;;;;;;;6.17;4.70;;;5.50;99.90;;;;;;5049554;28;20454;-70
2022/01/19 05:26:38;;;;;;;4.60;3.90;;;5.50;99.90;;;;;;5047896;28;20832;-70
2022/01/19 05:29:06;;;;;;;5.13;3.60;;;5.50;99.90;;;;;;5048636;28;20447;-71
2022/01/19 05:31:32;;;;;;;4.33;3.93;;;5.40;99.90;;;;;;5032398;28;20450;-70
2022/01/19 05:33:58;;;;;;;5.80;4.20;;;5.40;99.90;;;;;;5047823;28;20473;-69
2022/01/19 05:36:29;;;;;;;5.60;4.23;;;5.40;99.90;;;;;;5048207;28;20450;-70
2022/01/19 05:39:19;;;;;;;9.80;4.10;;;5.40;99.90;;;;;;5033232;28;20470;-70
2022/01/19 05:42:03;;;;;;;4.67;4.23;;;5.40;99.90;;;;;;5048583;28;20442;-71
2022/01/19 05:44:29;;;;;;;7.17;4.40;;;5.40;99.90;;;;;;5031212;28;20450;-71
2022/01/19 05:46:55;;;;;;;5.67;4.00;;;5.30;99.90;;;;;;5047369;28;20993;-71
2022/01/19 05:49:20;;;;;;;6.17;4.03;;;5.30;99.90;;;;;;5048842;28;20236;-70
2022/01/19 05:51:48;;;;;;;6.30;4.50;;;5.20;99.90;;;;;;5031070;28;20207;-70
2022/01/19 05:54:14;;;;;;;5.43;4.80;;;5.30;99.90;;;;;;5047972;28;20462;-71
2022/01/19 05:56:40;;;;;;;11.20;4.40;;;5.30;99.90;;;;;;5047889;28;20493;-70
2022/01/19 05:59:26;;;;;;;5.33;4.37;;;5.30;99.90;;;;;;5040787;28;20545;-71
2022/01/19 06:01:55;;;;;;;5.67;4.03;;;5.30;99.90;;;;;;5046304;28;20457;-71
2022/01/19 06:04:21;;;;;;;5.30;4.37;;;5.30;99.90;;;;;;5028040;28;20526;-71
2022/01/19 06:07:05;;;;;;;4.87;4.07;;;5.30;99.90;;;;;;5034549;28;20472;-70
2022/01/19 06:12:12;;;;;;;6.70;4.80;;;5.30;99.90;;;;;;5049486;28;20442;-71
2022/01/19 06:14:43;;;;;;;7.63;4.70;;;5.20;99.90;;;;;;5052153;28;20458;-71
2022/01/19 06:17:11;;;;;;;6.43;4.07;;;5.20;99.90;;;;;;5051906;28;20510;-70
2022/01/19 06:19:37;;;;;;;5.60;4.50;;;5.20;99.90;;;;;;5035588;28;20474;-72
2022/01/19 06:22:06;;;;;;;7.23;4.03;;;5.20;99.90;;;;;;5051737;28;20454;-70
2022/01/19 06:24:32;;;;;;;7.00;4.77;;;5.10;99.90;;;;;;5051660;28;20458;-71
2022/01/19 06:26:58;;;;;;;5.97;4.80;;;5.10;99.90;;;;;;5034788;28;20458;-71
2022/01/19 06:29:25;;;;;;;8.27;4.80;;;5.10;99.90;;;;;;5028552;28;21038;-70
2022/01/19 06:31:50;;;;;;;9.10;5.83;;;5.10;99.90;;;;;;5014709;28;20455;-70
2022/01/19 06:34:17;;;;;;;7.63;5.50;;;5.10;99.90;;;;;;5043435;28;20227;-71
2022/01/19 06:37:12;;;;;;;6.53;5.17;;;5.10;99.90;;;;;;4999732;28;20456;-70
2022/01/19 06:39:45;;;;;;;9.27;6.17;;;5.10;99.90;;;;;;5049535;28;20598;-70
2022/01/19 06:42:12;;;;;;;7.27;4.50;;;5.00;99.90;;;;;;5047853;28;20446;-71
2022/01/19 06:44:39;;;;;;;9.07;5.37;;;5.00;99.90;;;;;;5049096;28;20459;-71
2022/01/19 06:47:05;;;;;;;6.47;4.40;;;5.00;99.90;;;;;;5049552;28;20435;-72
2022/01/19 06:49:30;;;;;;;5.87;4.70;;;5.00;99.90;;;;;;5033207;28;20224;-70
2022/01/19 06:51:57;;;;;;;7.33;4.47;;;4.90;99.90;;;;;;5048757;28;20224;-70
2022/01/19 06:54:23;;;;;;;5.63;4.70;;;4.90;99.90;;;;;;5029506;28;20471;-70
2022/01/19 06:56:49;;;;;;;11.20;6.77;;;4.90;99.90;;;;;;5029496;28;20275;-69
2022/01/19 06:59:35;;;;;;;16.77;8.17;;;4.90;99.90;;;;;;5033468;28;20236;-71
2022/01/19 07:02:04;;;;;;;16.10;7.73;;;4.90;99.90;;;;;;5028062;28;20509;-71
2022/01/19 07:05:04;;;;;;;13.57;6.50;;;4.80;99.90;;;;;;5027220;28;20550;-69
2022/01/19 07:07:34;;;;;;;9.33;6.30;;;4.80;99.90;;;;;;5045705;28;20478;-70
2022/01/19 07:10:06;;;;;;;10.97;7.53;;;4.80;99.90;;;;;;5046981;28;20450;-70
2022/01/19 07:12:31;;;;;;;12.47;7.53;;;4.80;99.90;;;;;;5049156;28;20454;-71
2022/01/19 07:14:58;;;;;;;7.30;5.50;;;4.70;99.90;;;;;;5050620;28;20474;-69
2022/01/19 07:17:24;;;;;;;9.80;6.03;;;4.70;99.90;;;;;;5026123;28;20522;-71
2022/01/19 07:19:51;;;;;;;7.63;5.17;;;4.70;99.90;;;;;;5049194;28;20604;-71
2022/01/19 07:22:17;;;;;;;10.40;5.70;;;4.70;99.90;;;;;;5048205;28;20466;-71
2022/01/19 07:24:44;;;;;;;8.87;5.50;;;4.60;99.90;;;;;;5043802;28;20212;-71
2022/01/19 07:27:10;;;;;;;7.43;5.37;;;4.60;99.90;;;;;;5049002;28;20454;-71
2022/01/19 07:29:35;;;;;;;7.03;6.00;;;4.60;99.90;;;;;;5032764;28;20463;-70
2022/01/19 07:32:01;;;;;;;16.70;8.70;;;4.60;99.90;;;;;;5031265;28;20223;-70
2022/01/19 07:34:29;;;;;;;18.50;11.10;;;4.60;99.90;;;;;;5032178;28;20223;-70
2022/01/19 07:36:56;;;;;;;21.23;13.00;;;4.60;99.90;;;;;;5047185;28;20462;-70
2022/01/19 07:39:23;;;;;;;18.83;10.73;;;4.60;99.90;;;;;;5047883;28;20477;-72
2022/01/19 07:41:53;;;;;;;15.10;9.87;;;4.50;99.90;;;;;;5049073;28;20525;-71
2022/01/19 07:44:45;;;;;;;17.07;10.27;;;4.50;99.90;;;;;;5047468;28;20979;-71
2022/01/19 07:47:43;;;;;;;15.70;10.10;;;4.50;99.90;;;;;;5048268;28;20478;-71
2022/01/19 07:50:18;;;;;;;16.27;10.20;;;4.50;99.90;;;;;;5029156;28;20455;-71
2022/01/19 07:53:07;;;;;;;17.83;8.67;;;4.50;99.90;;;;;;5036854;28;20466;-70
2022/01/19 07:55:49;;;;;;;15.17;8.97;;;4.50;99.90;;;;;;5027740;28;20456;-71
2022/01/19 07:58:43;;;;;;;22.70;11.07;;;4.50;99.90;;;;;;5001710;28;20831;-71
2022/01/19 08:01:16;;;;;;;18.53;11.43;;;4.50;99.90;;;;;;5006689;28;20455;-70
2022/01/19 08:04:04;;;;;;;12.83;8.00;;;4.40;99.90;;;;;;5025745;28;20459;-71
2022/01/19 08:06:34;;;;;;;13.80;8.00;;;4.40;99.90;;;;;;5012466;28;20547;-68
2022/01/19 08:09:00;;;;;;;11.50;7.60;;;4.50;99.90;;;;;;5006956;28;20472;-70
2022/01/19 08:11:26;;;;;;;11.33;7.07;;;4.50;99.90;;;;;;5011598;28;20860;-71
2022/01/19 08:14:11;;;;;;;8.30;6.00;;;4.40;99.90;;;;;;5023495;28;20464;-70
2022/01/19 08:16:37;;;;;;;9.97;6.00;;;4.40;99.90;;;;;;5005781;28;20466;-70
2022/01/19 08:19:03;;;;;;;8.77;5.83;;;4.40;99.90;;;;;;5027673;28;20736;-70
2022/01/19 08:21:29;;;;;;;8.50;5.60;;;4.30;99.90;;;;;;5012386;28;20225;-70
2022/01/19 08:23:59;;;;;;;8.90;5.80;;;4.30;99.90;;;;;;5011762;28;20459;-71
2022/01/19 08:26:25;;;;;;;8.87;5.93;;;4.20;99.90;;;;;;5007795;28;20512;-70
2022/01/19 08:28:54;;;;;;;7.57;5.10;;;4.20;99.90;;;;;;5020854;28;20220;-71
2022/01/19 08:31:20;;;;;;;8.90;5.53;;;4.20;99.90;;;;;;5000631;28;20455;-70
2022/01/19 08:34:09;;;;;;;16.43;7.17;;;4.20;99.90;;;;;;5015237;28;20225;-71
2022/01/19 08:37:04;;;;;;;8.50;5.40;;;4.30;99.90;;;;;;5020247;28;20508;-72
2022/01/19 08:39:39;;;;;;;9.87;6.10;;;4.30;99.90;;;;;;5003326;28;20485;-67
2022/01/19 08:42:06;;;;;;;13.23;5.23;;;4.40;99.90;;;;;;5001877;28;20498;-71
2022/01/19 08:44:32;;;;;;;13.17;6.57;;;4.40;99.90;;;;;;5001331;28;20494;-71
2022/01/19 08:47:08;;;;;;;12.13;6.70;;;4.40;99.90;;;;;;5006864;28;20512;-71
2022/01/19 08:49:34;;;;;;;8.47;6.10;;;4.40;99.90;;;;;;5021010;28;20455;-70
2022/01/19 08:52:20;;;;;;;13.90;7.33;;;4.40;99.90;;;;;;5025917;28;20259;-69
2022/01/19 08:54:50;;;;;;;10.20;6.17;;;4.40;99.90;;;;;;5025878;28;20546;-71
2022/01/19 08:57:17;;;;;;;11.20;7.23;;;4.40;99.90;;;;;;5008152;28;20471;-70
2022/01/19 08:59:43;;;;;;;9.97;6.33;;;4.40;99.90;;;;;;5005552;28;20869;-70
2022/01/19 09:02:09;;;;;;;12.67;6.47;;;4.50;99.90;;;;;;5021510;28;20459;-71
2022/01/19 09:04:35;;;;;;;10.87;5.97;;;4.50;99.90;;;;;;5026248;28;20226;-71
2022/01/19 09:07:01;;;;;;;11.03;6.53;;;4.50;99.90;;;;;;5005288;28;20472;-71
2022/01/19 09:09:27;;;;;;;11.57;6.97;;;4.60;99.90;;;;;;5018457;28;20231;-69
2022/01/19 09:11:53;;;;;;;11.00;6.30;;;4.60;99.90;;;;;;5021777;28;20736;-71
2022/01/19 09:14:18;;;;;;;10.60;6.60;;;4.70;99.90;;;;;;5026010;28;20474;-69
2022/01/19 09:16:49;;;;;;;8.60;5.20;;;4.70;99.90;;;;;;5024864;28;20220;-71
2022/01/19 09:19:16;;;;;;;7.43;5.57;;;4.70;99.90;;;;;;5025718;28;20224;-70
2022/01/19 09:21:42;;;;;;;12.10;6.60;;;4.70;99.90;;;;;;5026938;28;20505;-68
2022/01/19 09:24:10;;;;;;;8.93;6.20;;;4.80;99.90;;;;;;5007253;28;20455;-71
2022/01/19 09:26:36;;;;;;;10.93;6.60;;;4.80;99.90;;;;;;5028090;28;20235;-69
2022/01/19 09:29:03;;;;;;;8.80;5.90;;;4.80;99.90;;;;;;5025359;28;20469;-70
2022/01/19 09:31:28;;;;;;;12.50;7.70;;;4.80;99.90;;;;;;5011829;28;20443;-70
2022/01/19 09:34:08;;;;;;;10.13;6.30;;;4.80;99.90;;;;;;5025844;28;21001;-70
2022/01/19 09:36:36;;;;;;;10.20;6.80;;;4.90;99.90;;;;;;5027797;28;20231;-69
2022/01/19 09:39:05;;;;;;;11.93;7.00;;;4.90;99.90;;;;;;5019421;28;20463;-70
2022/01/19 09:41:31;;;;;;;10.20;6.60;;;4.90;99.90;;;;;;5017758;28;20748;-71
2022/01/19 09:43:57;;;;;;;9.73;6.80;;;4.90;99.90;;;;;;5029017;28;20459;-70
2022/01/19 09:46:23;;;;;;;10.73;7.87;;;4.90;99.90;;;;;;5020940;28;20482;-71
2022/01/19 09:48:49;;;;;;;10.93;7.00;;;4.90;99.90;;;;;;5029200;28;20458;-70
2022/01/19 09:51:15;;;;;;;11.20;6.70;;;4.90;99.90;;;;;;5012096;28;20455;-70
2022/01/19 09:53:42;;;;;;;10.30;6.53;;;4.80;99.90;;;;;;5025753;28;20463;-71
2022/01/19 09:56:08;;;;;;;10.60;5.87;;;4.80;99.90;;;;;;5030577;28;20453;-71
2022/01/19 09:58:34;;;;;;;12.90;6.90;;;4.80;99.90;;;;;;5030133;28;20608;-70
2022/01/19 10:01:00;;;;;;;10.20;6.77;;;4.80;99.90;;;;;;5022821;28;20478;-69
2022/01/19 10:03:30;;;;;;;11.50;6.80;;;4.80;99.90;;;;;;5035902;28;20307;-70
2022/01/19 10:06:07;;;;;;;13.60;7.43;;;4.80;99.90;;;;;;5018677;28;20255;-71
2022/01/19 10:08:36;;;;;;;10.43;6.77;;;4.80;99.90;;;;;;5028912;28;20438;-70
2022/01/19 10:11:09;;;;;;;9.33;6.70;;;4.80;99.90;;;;;;5028157;28;20506;-71
2022/01/19 10:19:22;;;;;;;13.77;6.60;;;4.90;99.90;;;;;;5032458;28;20457;-70
2022/01/19 10:22:11;;;;;;;10.83;6.57;;;4.80;99.90;;;;;;5030601;28;20451;-69
2022/01/19 10:24:57;;;;;;;8.17;5.63;;;4.80;99.90;;;;;;5014390;28;20443;-70
2022/01/19 10:27:29;;;;;;;13.20;7.43;;;4.80;99.90;;;;;;5008383;28;20446;-70
2022/01/19 10:30:07;;;;;;;8.33;5.37;;;4.90;99.90;;;;;;5027266;28;20538;-70
2022/01/19 10:32:35;;;;;;;10.67;6.93;;;4.90;99.90;;;;;;5012077;28;20924;-71
2022/01/19 10:35:19;;;;;;;8.87;6.43;;;4.90;99.90;;;;;;4996995;28;20849;-70
2022/01/19 10:37:48;;;;;;;14.90;6.40;;;4.90;99.90;;;;;;5031366;28;20553;-71
2022/01/19 10:40:18;;;;;;;10.97;5.97;;;4.90;99.90;;;;;;5030872;28;20461;-71
2022/01/19 10:42:45;;;;;;;12.23;7.27;;;4.90;99.90;;;;;;5013695;28;20455;-69
2022/01/19 10:45:13;;;;;;;16.03;7.67;;;4.90;99.90;;;;;;5012749;28;20458;-68
2022/01/19 10:47:56;;;;;;;19.23;9.00;;;4.90;99.90;;;;;;5030075;28;20466;-71
2022/01/19 10:50:28;;;;;;;13.50;8.07;;;4.90;99.90;;;;;;5031561;28;20459;-70
2022/01/19 10:52:55;;;;;;;13.47;7.50;;;4.90;99.90;;;;;;5028897;28;20467;-70
2022/01/19 10:55:54;;;;;;;15.10;7.53;;;4.80;99.90;;;;;;5027895;28;20467;-71
2022/01/19 10:58:19;;;;;;;11.10;7.70;;;4.80;99.90;;;;;;5029306;28;20463;-69
2022/01/19 11:00:50;;;;;;;17.53;8.17;;;4.80;99.90;;;;;;5030733;28;20471;-70
2022/01/19 11:03:19;;;;;;;13.60;8.27;;;4.80;99.90;;;;;;5027502;28;20571;-70
2022/01/19 11:05:53;;;;;;;18.67;8.97;;;4.70;99.90;;;;;;5028065;28;20839;-71
2022/01/19 11:08:20;;;;;;;15.97;8.77;;;4.70;99.90;;;;;;5021536;28;20459;-69
2022/01/19 11:10:51;;;;;;;18.07;8.70;;;4.70;99.90;;;;;;5022146;28;20458;-71
2022/01/19 11:13:31;;;;;;;16.50;9.03;;;4.70;99.90;;;;;;5019337;28;20550;-71
2022/01/19 11:15:58;;;;;;;12.40;8.53;;;4.70;99.90;;;;;;5019103;28;20479;-71
2022/01/19 11:18:29;;;;;;;18.13;8.77;;;4.70;99.90;;;;;;5003858;28;21004;-71
2022/01/19 11:21:04;;;;;;;13.50;8.60;;;4.70;99.90;;;;;;5019413;28;20444;-71
2022/01/19 11:23:36;;;;;;;12.57;7.80;;;4.70;99.90;;;;;;5018972;28;20959;-70
2022/01/19 11:26:05;;;;;;;16.07;8.47;;;4.70;99.90;;;;;;5026354;28;20895;-71
2022/01/19 11:28:36;;;;;;;17.53;10.40;;;4.70;99.90;;;;;;5019097;28;20460;-71
2022/01/19 11:31:08;;;;;;;17.70;10.40;;;4.70;99.90;;;;;;5016296;28;20446;-71
2022/01/19 11:33:55;;;;;;;19.20;10.23;;;4.60;99.90;;;;;;5004157;28;20443;-69
2022/01/19 11:36:25;;;;;;;19.43;9.57;;;4.60;99.90;;;;;;5024236;28;21046;-71
2022/01/19 11:39:20;;;;;;;21.57;11.27;;;4.50;99.90;;;;;;5020525;28;20459;-71
2022/01/19 11:41:47;;;;;;;33.57;18.20;;;4.50;99.90;;;;;;5009799;28;20459;-71
2022/01/19 11:44:38;;;;;;;35.43;19.40;;;4.60;99.90;;;;;;5028655;28;20826;-71
2022/01/19 11:47:09;;;;;;;28.57;14.07;;;4.60;99.90;;;;;;5025388;28;20831;-71
2022/01/19 11:49:50;;;;;;;27.50;13.90;;;4.50;99.90;;;;;;5027506;28;20506;-71
2022/01/19 11:52:19;;;;;;;27.83;13.57;;;4.50;99.90;;;;;;5026117;28;20454;-70
2022/01/19 11:54:46;;;;;;;36.27;23.27;;;4.50;99.90;;;;;;5026494;28;20468;-70
2022/01/19 11:57:27;;;;;;;27.50;17.30;;;4.40;99.90;;;;;;5026752;28;20455;-70
2022/01/19 12:00:05;;;;;;;40.00;21.93;;;4.40;99.90;;;;;;5026229;28;20471;-71
2022/01/19 12:02:40;;;;;;;54.77;26.40;;;4.30;99.90;;;;;;5028503;28;20510;-71
2022/01/19 12:05:09;;;;;;;37.07;17.97;;;4.30;99.90;;;;;;5024952;28;20476;-70
2022/01/19 12:07:48;;;;;;;23.23;12.27;;;4.30;99.90;;;;;;5026086;28;20968;-71
2022/01/19 12:10:32;;;;;;;29.97;13.77;;;4.30;99.90;;;;;;5028632;28;20535;-70
2022/01/19 12:13:44;;;;;;;21.97;12.67;;;4.30;99.90;;;;;;5026223;28;20459;-70
2022/01/19 12:16:27;;;;;;;12.60;8.60;;;4.30;99.90;;;;;;5024854;28;20465;-71
2022/01/19 12:18:57;;;;;;;22.53;11.83;;;4.30;99.90;;;;;;5024107;28;20454;-70
2022/01/19 12:21:31;;;;;;;21.90;9.80;;;4.40;99.90;;;;;;5031433;28;20443;-70
2022/01/19 12:24:16;;;;;;;15.60;8.07;;;4.40;99.90;;;;;;5026021;28;20446;-71
2022/01/19 12:27:01;;;;;;;16.27;9.50;;;4.50;99.90;;;;;;5022611;28;20540;-71
2022/01/19 12:29:36;;;;;;;24.50;12.60;;;4.40;99.90;;;;;;5028417;28;20447;-71
2022/01/19 12:32:24;;;;;;;22.07;12.03;;;4.50;99.90;;;;;;5029471;28;20443;-71
2022/01/19 12:34:53;;;;;;;15.80;8.67;;;4.50;99.90;;;;;;5024155;28;20455;-70
2022/01/19 12:37:30;;;;;;;15.80;8.27;;;4.40;99.90;;;;;;5028059;28;20459;-70
2022/01/19 12:39:57;;;;;;;13.10;8.47;;;4.40;99.90;;;;;;5027955;28;20455;-71
2022/01/19 12:42:31;;;;;;;21.50;10.07;;;4.40;99.90;;;;;;5029912;28;20590;-70
2022/01/19 12:44:59;;;;;;;13.27;8.87;;;4.40;99.90;;;;;;5026738;28;20476;-70
2022/01/19 12:47:28;;;;;;;15.60;7.80;;;4.30;99.90;;;;;;5027730;28;20474;-71
2022/01/19 12:50:08;;;;;;;18.10;9.60;;;4.30;99.90;;;;;;5027714;28;20455;-70
2022/01/19 12:52:56;;;;;;;11.93;8.30;;;4.40;99.90;;;;;;5028560;28;20465;-71
2022/01/19 12:55:26;;;;;;;14.10;7.60;;;4.40;99.90;;;;;;5027034;28;20491;-69
2022/01/19 12:57:54;;;;;;;14.90;7.73;;;4.40;99.90;;;;;;5027648;28;20470;-71
2022/01/19 13:00:27;;;;;;;15.50;7.93;;;4.40;99.90;;;;;;5029095;28;20463;-69
2022/01/19 13:02:53;;;;;;;12.90;7.63;;;4.40;99.90;;;;;;5027568;28;20455;-71
2022/01/19 13:05:20;;;;;;;11.17;6.83;;;4.40;99.90;;;;;;5026602;28;20509;-70
2022/01/19 13:07:53;;;;;;;11.60;6.40;;;4.40;99.90;;;;;;5028469;28;20225;-71
2022/01/19 13:10:26;;;;;;;15.20;6.80;;;4.40;99.90;;;;;;5026741;28;20461;-70
2022/01/19 13:13:08;;;;;;;19.27;12.20;;;4.30;99.90;;;;;;5008007;28;20456;-72
2022/01/19 13:16:00;;;;;;;23.33;14.13;;;4.30;99.90;;;;;;5023708;28;20472;-70
2022/01/19 13:18:42;;;;;;;34.40;18.53;;;4.30;99.90;;;;;;5032564;28;20481;-71
2022/01/19 13:21:12;;;;;;;41.60;20.23;;;4.30;99.90;;;;;;5026583;28;20474;-69
2022/01/19 13:24:05;;;;;;;46.67;22.57;;;4.20;99.90;;;;;;5016956;28;20916;-70
2022/01/19 13:26:54;;;;;;;61.27;30.07;;;4.20;99.90;;;;;;5047693;28;20486;-71
2022/01/19 13:29:33;;;;;;;82.30;37.97;;;4.20;99.90;;;;;;5044733;28;20955;-71
2022/01/19 13:32:10;;;;;;;51.70;29.43;;;4.10;99.90;;;;;;5039194;28;20706;-71
2022/01/19 13:35:02;;;;;;;41.47;20.40;;;4.10;99.90;;;;;;5037567;28;20561;-71
2022/01/19 13:37:37;;;;;;;53.37;22.73;;;4.10;99.90;;;;;;5080192;28;25871;-71
2022/01/19 13:40:08;;;;;;;35.67;17.90;;;4.00;99.90;;;;;;5061553;28;20476;-71
2022/01/19 13:42:40;;;;;;;35.47;19.43;;;4.10;99.90;;;;;;5057444;28;20462;-71
2022/01/19 13:51:06;;;;;;;15.53;7.37;;;4.00;99.90;;;;;;5034404;28;20458;-70
2022/01/19 13:53:40;;;;;;;13.53;8.00;;;4.10;99.90;;;;;;5046796;28;20493;-70
2022/01/19 13:56:20;;;;;;;10.20;6.40;;;4.10;99.90;;;;;;5027446;28;20451;-70
2022/01/19 13:59:11;;;;;;;12.53;7.17;;;4.10;99.90;;;;;;5044726;28;20462;-69
2022/01/19 14:01:40;;;;;;;21.97;8.50;;;4.10;99.90;;;;;;5026361;28;20960;-71
2022/01/19 14:04:09;;;;;;;13.87;7.23;;;4.00;99.90;;;;;;5036654;28;20459;-71
2022/01/19 14:06:39;;;;;;;11.37;6.93;;;4.10;99.90;;;;;;5027767;28;20455;-69
2022/01/19 14:09:25;;;;;;;12.23;7.30;;;4.10;99.90;;;;;;5043172;28;20496;-71
2022/01/19 14:12:03;;;;;;;11.80;6.50;;;4.00;99.90;;;;;;5025203;28;20465;-70
2022/01/19 14:14:37;;;;;;;11.70;6.83;;;4.00;99.90;;;;;;5028428;28;20492;-71
2022/01/19 14:17:10;;;;;;;12.03;7.13;;;3.90;99.90;;;;;;5044008;28;20497;-72
2022/01/19 14:19:47;;;;;;;11.63;7.13;;;3.90;99.90;;;;;;5040551;28;20517;-70
2022/01/19 14:22:33;;;;;;;13.50;7.83;;;3.90;99.90;;;;;;5041218;28;20461;-71
2022/01/19 14:25:07;;;;;;;13.00;9.20;;;4.00;99.90;;;;;;5055140;28;20541;-71
2022/01/19 14:27:56;;;;;;;26.37;14.17;;;4.00;99.90;;;;;;5058589;28;20514;-69
2022/01/19 14:30:28;;;;;;;48.40;27.10;;;3.90;99.90;;;;;;5049321;28;20463;-70
2022/01/19 14:32:54;;;;;;;80.17;40.73;;;4.00;99.90;;;;;;5057679;28;20458;-71
2022/01/19 14:35:38;;;;;;;124.00;64.10;;;4.00;99.90;;;;;;5056895;28;20460;-70
2022/01/19 14:38:06;;;;;;;162.97;79.13;;;4.00;99.90;;;;;;5047323;28;20224;-71
2022/01/19 14:40:37;;;;;;;125.77;64.57;;;4.00;99.90;;;;;;5055593;28;20459;-71
2022/01/19 14:43:09;;;;;;;73.77;38.03;;;4.00;99.90;;;;;;5059532;28;20481;-71